Time;durP1;ratioP1;P1;durP2;ratioP2;P2;SDS_P1;SDS_P2;PMS_P1;PMS_P2;Temp;Humidity;BMP_temperature;BMP_pressure;BME280_temperature;BME280_humidity;BME280_pressure;Samples;Min_cycle;Max_cycle;Signal;HPM_P1;HPM_P2
2021/12/08 00:00:53;;;;;;;0.20;0.20;;;0.00;98.50;;;;;;5071617;28;20193;-71
2021/12/08 00:03:20;;;;;;;0.40;0.40;;;-0.10;98.50;;;;;;5103763;27;20190;-71
2021/12/08 00:05:47;;;;;;;0.40;0.40;;;0.00;98.50;;;;;;5070776;28;20187;-71
2021/12/08 00:08:15;;;;;;;0.40;0.40;;;0.00;98.50;;;;;;5069192;28;20266;-71
2021/12/08 00:13:32;;;;;;;3.80;0.60;;;0.00;98.50;;;;;;5069221;28;20673;-71
2021/12/08 00:16:01;;;;;;;0.40;0.40;;;0.00;98.50;;;;;;5067048;28;20853;-71
2021/12/08 00:18:31;;;;;;;0.43;0.43;;;0.00;98.50;;;;;;5071434;28;20195;-71
2021/12/08 00:21:00;;;;;;;0.40;0.40;;;0.00;98.50;;;;;;5071320;28;20183;-71
2021/12/08 00:23:27;;;;;;;0.83;0.63;;;0.00;98.50;;;;;;5074077;28;20183;-71
2021/12/08 00:25:54;;;;;;;0.37;0.37;;;0.00;98.50;;;;;;5070186;28;20183;-71
2021/12/08 00:28:20;;;;;;;0.67;0.67;;;0.00;98.50;;;;;;5070085;28;20195;-71
2021/12/08 00:30:50;;;;;;;0.53;0.53;;;0.00;98.50;;;;;;5070391;28;20281;-71
2021/12/08 00:33:17;;;;;;;0.40;0.40;;;0.00;98.50;;;;;;5065116;28;20189;-71
2021/12/08 00:35:46;;;;;;;0.70;0.70;;;0.00;98.50;;;;;;5068640;28;20253;-71
2021/12/08 00:38:13;;;;;;;0.40;0.40;;;0.00;98.50;;;;;;5073550;28;20179;-71
2021/12/08 00:40:38;;;;;;;0.30;0.30;;;0.00;98.50;;;;;;5070631;28;20320;-70
2021/12/08 00:43:06;;;;;;;0.50;0.50;;;0.00;98.50;;;;;;5073650;28;20249;-71
2021/12/08 00:45:33;;;;;;;0.60;0.60;;;0.00;98.50;;;;;;5072512;28;20189;-71
2021/12/08 00:48:00;;;;;;;0.47;0.47;;;0.00;98.50;;;;;;5072110;28;20175;-71
2021/12/08 00:50:29;;;;;;;2.00;0.60;;;0.00;98.50;;;;;;5075895;28;20178;-71
2021/12/08 00:52:57;;;;;;;0.40;0.40;;;0.00;98.50;;;;;;5068425;28;20186;-71
2021/12/08 00:55:23;;;;;;;0.87;0.87;;;0.00;98.50;;;;;;5064039;28;20305;-71
2021/12/08 00:57:49;;;;;;;0.50;0.50;;;0.00;98.50;;;;;;5071023;28;20724;-71
2021/12/08 01:00:19;;;;;;;0.50;0.50;;;0.00;98.50;;;;;;5075435;28;20186;-71
2021/12/08 01:02:45;;;;;;;0.57;0.50;;;0.00;98.50;;;;;;5075349;28;20220;-71
2021/12/08 01:05:16;;;;;;;0.47;0.47;;;0.00;98.50;;;;;;5075420;28;20182;-71
2021/12/08 01:07:42;;;;;;;0.50;0.50;;;0.00;98.50;;;;;;5069229;28;20208;-71
2021/12/08 01:10:13;;;;;;;0.63;0.63;;;0.00;98.50;;;;;;5068507;28;20187;-72
2021/12/08 01:12:39;;;;;;;0.50;0.50;;;-0.10;98.50;;;;;;5077234;28;20194;-72
2021/12/08 01:15:05;;;;;;;1.03;0.60;;;-0.10;98.50;;;;;;5078580;28;20210;-71
2021/12/08 01:17:32;;;;;;;0.90;0.90;;;-0.10;98.50;;;;;;5073327;28;20191;-72
2021/12/08 01:19:58;;;;;;;0.57;0.57;;;-0.10;98.50;;;;;;5069656;28;20225;-72
2021/12/08 01:22:24;;;;;;;0.53;0.53;;;-0.10;98.50;;;;;;5072877;28;20209;-72
2021/12/08 01:24:50;;;;;;;1.07;0.93;;;-0.10;98.50;;;;;;5070535;28;20692;-71
2021/12/08 01:27:15;;;;;;;0.67;0.67;;;-0.10;98.50;;;;;;5067616;28;20727;-72
2021/12/08 01:29:41;;;;;;;0.93;0.80;;;-0.10;98.50;;;;;;5070915;28;20190;-71
2021/12/08 01:32:07;;;;;;;0.80;0.80;;;-0.10;98.50;;;;;;5072351;28;20269;-71
2021/12/08 01:34:33;;;;;;;0.67;0.67;;;-0.10;98.50;;;;;;5066358;28;20241;-72
2021/12/08 01:36:59;;;;;;;0.77;0.77;;;-0.10;98.50;;;;;;5073172;28;20259;-71
2021/12/08 01:39:25;;;;;;;0.97;0.90;;;0.00;98.50;;;;;;5068445;28;20667;-72
2021/12/08 01:41:53;;;;;;;0.63;0.63;;;0.00;98.50;;;;;;5071622;28;20261;-69
2021/12/08 01:47:04;;;;;;;0.50;0.50;;;0.00;98.50;;;;;;5068944;28;20317;-71
2021/12/08 01:49:29;;;;;;;1.10;1.10;;;0.00;98.50;;;;;;5076171;28;20712;-71
2021/12/08 01:51:55;;;;;;;1.00;1.00;;;0.00;98.50;;;;;;5069865;28;20316;-71
2021/12/08 01:54:21;;;;;;;0.97;0.97;;;0.00;98.50;;;;;;5075122;28;20231;-68
2021/12/08 01:56:47;;;;;;;2.73;1.20;;;0.00;98.50;;;;;;5072312;28;20919;-72
2021/12/08 01:59:13;;;;;;;1.97;1.07;;;0.00;98.50;;;;;;5076797;28;20172;-71
2021/12/08 02:01:41;;;;;;;2.00;1.37;;;0.00;98.50;;;;;;5067545;28;20653;-70
2021/12/08 02:04:08;;;;;;;1.00;1.00;;;0.00;98.50;;;;;;5070555;28;20665;-71
2021/12/08 02:06:39;;;;;;;0.80;0.80;;;0.00;98.50;;;;;;5073377;28;20664;-71
2021/12/08 02:09:09;;;;;;;1.40;0.93;;;0.00;98.50;;;;;;5072410;28;20642;-70
2021/12/08 02:11:36;;;;;;;0.83;0.83;;;0.00;98.50;;;;;;5069550;28;20304;-70
2021/12/08 02:14:02;;;;;;;1.07;1.00;;;0.10;98.50;;;;;;5069107;28;20178;-70
2021/12/08 02:16:29;;;;;;;0.80;0.80;;;0.10;98.50;;;;;;5068765;28;20226;-74
2021/12/08 02:18:56;;;;;;;1.50;1.40;;;0.10;98.50;;;;;;5076157;28;20349;-72
2021/12/08 02:21:34;;;;;;;1.83;1.73;;;0.10;98.50;;;;;;5068919;28;20190;-69
2021/12/08 02:24:04;;;;;;;1.00;1.00;;;0.10;98.50;;;;;;5067826;28;20208;-72
2021/12/08 02:26:32;;;;;;;2.73;1.53;;;0.10;98.50;;;;;;5069669;28;20273;-72
2021/12/08 02:29:01;;;;;;;2.60;2.10;;;0.10;98.50;;;;;;5065436;28;20186;-71
2021/12/08 02:31:37;;;;;;;1.57;1.47;;;0.10;98.50;;;;;;5068340;28;20176;-70
2021/12/08 02:47:55;;;;;;;2.40;2.30;;;0.10;98.50;;;;;;5070387;28;20186;-70
2021/12/08 02:50:35;;;;;;;3.53;2.13;;;0.10;98.50;;;;;;5067850;28;20371;-70
2021/12/08 02:53:03;;;;;;;2.70;2.50;;;0.10;98.50;;;;;;5071229;28;20193;-70
2021/12/08 02:55:30;;;;;;;4.20;3.07;;;0.10;98.50;;;;;;5068462;28;20318;-70
2021/12/08 02:57:57;;;;;;;4.90;2.53;;;0.10;98.50;;;;;;5072844;28;20815;-70
2021/12/08 03:00:26;;;;;;;3.23;2.33;;;0.10;98.50;;;;;;5072823;28;20210;-70
2021/12/08 03:02:54;;;;;;;2.83;2.63;;;0.10;98.50;;;;;;5072154;28;20632;-70
2021/12/08 03:05:20;;;;;;;4.53;3.07;;;0.10;98.50;;;;;;5071073;28;20186;-70
2021/12/08 03:07:47;;;;;;;5.90;3.63;;;0.10;98.50;;;;;;5071364;28;20653;-70
2021/12/08 03:10:17;;;;;;;4.60;2.90;;;0.10;98.50;;;;;;5072518;28;20675;-70
2021/12/08 03:12:42;;;;;;;4.10;2.70;;;0.10;98.50;;;;;;5064492;28;20186;-70
2021/12/08 03:15:10;;;;;;;2.20;2.00;;;0.10;98.50;;;;;;5073050;28;20575;-71
2021/12/08 03:17:36;;;;;;;3.50;3.03;;;0.10;98.50;;;;;;5072020;28;20265;-70
2021/12/08 03:20:07;;;;;;;2.97;2.77;;;0.10;98.50;;;;;;5077968;28;20181;-70
2021/12/08 03:22:36;;;;;;;2.83;2.63;;;0.20;98.50;;;;;;5075176;28;20174;-70
2021/12/08 03:25:05;;;;;;;4.27;2.67;;;0.10;98.50;;;;;;5069469;28;20259;-70
2021/12/08 03:27:41;;;;;;;2.90;2.70;;;0.10;98.50;;;;;;5072026;28;20173;-70
2021/12/08 03:30:18;;;;;;;6.50;3.60;;;0.10;98.50;;;;;;5068515;28;20182;-70
2021/12/08 03:32:44;;;;;;;7.97;2.50;;;0.10;98.50;;;;;;5072667;28;20258;-70
2021/12/08 03:35:15;;;;;;;4.40;3.27;;;0.10;98.50;;;;;;5067465;28;20219;-70
2021/12/08 03:37:44;;;;;;;3.53;3.13;;;0.10;98.50;;;;;;5077980;28;20187;-70
2021/12/08 03:40:28;;;;;;;3.07;2.33;;;0.10;98.50;;;;;;5066438;28;20195;-69
2021/12/08 03:42:56;;;;;;;2.77;2.57;;;0.10;98.50;;;;;;5070116;28;20183;-70
2021/12/08 03:45:33;;;;;;;2.93;2.73;;;0.10;98.50;;;;;;5069853;28;20266;-70
2021/12/08 03:48:07;;;;;;;3.17;2.87;;;0.10;98.50;;;;;;5073429;28;20664;-70
2021/12/08 03:50:36;;;;;;;4.83;3.03;;;0.20;98.50;;;;;;5067754;28;20218;-70
2021/12/08 03:53:03;;;;;;;4.90;3.07;;;0.20;98.50;;;;;;5075392;28;20170;-70
2021/12/08 03:55:28;;;;;;;3.57;2.83;;;0.20;98.50;;;;;;5073364;28;20214;-70
2021/12/08 03:57:54;;;;;;;4.70;2.90;;;0.20;98.50;;;;;;5073647;28;20263;-70
2021/12/08 04:00:25;;;;;;;2.93;2.73;;;0.20;98.50;;;;;;5067795;28;20210;-69
2021/12/08 04:02:52;;;;;;;3.80;2.97;;;0.20;98.50;;;;;;5071979;28;20218;-70
2021/12/08 04:05:22;;;;;;;3.27;2.63;;;0.20;98.50;;;;;;5067438;28;20248;-69
2021/12/08 04:07:48;;;;;;;3.23;2.87;;;0.20;98.50;;;;;;5067245;28;20186;-70
2021/12/08 04:10:19;;;;;;;2.27;2.17;;;0.30;98.50;;;;;;5065911;28;20187;-70
2021/12/08 04:12:51;;;;;;;3.10;2.73;;;0.30;98.50;;;;;;5072292;28;20206;-70
2021/12/08 04:15:20;;;;;;;4.87;3.57;;;0.30;98.50;;;;;;5072275;28;20853;-70
2021/12/08 04:17:49;;;;;;;2.70;2.57;;;0.30;98.50;;;;;;5070052;28;20183;-70
2021/12/08 04:20:37;;;;;;;4.17;3.07;;;0.30;98.50;;;;;;5073424;28;20189;-69
2021/12/08 04:23:07;;;;;;;2.50;2.33;;;0.30;98.50;;;;;;5072060;28;20210;-70
2021/12/08 04:25:38;;;;;;;4.30;3.10;;;0.30;98.50;;;;;;5068205;28;20218;-69
2021/12/08 04:28:09;;;;;;;2.50;2.30;;;0.30;98.50;;;;;;5068836;28;20202;-69
2021/12/08 04:31:07;;;;;;;4.90;3.00;;;0.30;98.50;;;;;;5073256;28;20676;-70
2021/12/08 04:33:35;;;;;;;3.07;2.47;;;0.30;98.50;;;;;;5070885;28;20178;-70
2021/12/08 04:36:05;;;;;;;4.80;2.67;;;0.30;98.50;;;;;;5067574;28;20289;-69
2021/12/08 04:38:37;;;;;;;4.17;3.10;;;0.30;98.50;;;;;;5074084;28;20183;-69
2021/12/08 04:41:18;;;;;;;3.30;2.77;;;0.30;98.50;;;;;;5072589;28;20190;-69
2021/12/08 04:43:58;;;;;;;3.10;2.90;;;0.30;98.50;;;;;;5073209;28;20195;-69
2021/12/08 05:05:47;;;;;;;3.83;3.50;;;0.30;98.50;;;;;;5028285;28;20275;-69
2021/12/08 05:08:22;;;;;;;4.07;3.10;;;0.30;98.50;;;;;;5020684;28;20188;-70
2021/12/08 05:10:51;;;;;;;4.97;2.77;;;0.30;98.50;;;;;;5009351;28;20189;-70
2021/12/08 05:13:18;;;;;;;4.30;3.10;;;0.30;98.50;;;;;;5029890;28;20223;-70
2021/12/08 05:15:49;;;;;;;4.67;3.27;;;0.20;98.50;;;;;;5033364;28;20223;-70
2021/12/08 05:18:20;;;;;;;10.20;4.00;;;0.30;98.50;;;;;;5028603;28;20623;-70
2021/12/08 05:20:53;;;;;;;4.30;3.50;;;0.20;98.50;;;;;;5021453;28;20192;-70
2021/12/08 05:23:45;;;;;;;5.67;3.53;;;0.20;98.50;;;;;;5032636;28;20203;-69
2021/12/08 05:26:27;;;;;;;6.20;3.17;;;0.20;98.50;;;;;;5024737;28;20223;-70
2021/12/08 05:28:56;;;;;;;3.47;2.63;;;0.20;98.50;;;;;;5009823;28;20274;-70
2021/12/08 05:31:26;;;;;;;3.83;3.30;;;0.20;98.50;;;;;;5024602;28;20334;-70
2021/12/08 05:33:52;;;;;;;3.80;2.73;;;0.20;98.50;;;;;;5030045;28;21035;-70
2021/12/08 05:36:19;;;;;;;3.47;3.20;;;0.20;98.50;;;;;;5030153;28;20223;-71
2021/12/08 05:38:45;;;;;;;5.50;3.57;;;0.10;98.50;;;;;;5030021;28;20179;-71
2021/12/08 05:41:15;;;;;;;5.83;3.90;;;0.10;98.50;;;;;;5024946;28;20187;-70
2021/12/08 05:43:42;;;;;;;6.13;3.47;;;0.10;98.50;;;;;;5070275;28;20622;-70
2021/12/08 05:46:09;;;;;;;3.93;2.90;;;0.10;98.50;;;;;;5064555;28;20179;-70
2021/12/08 05:48:36;;;;;;;6.00;3.97;;;0.10;98.50;;;;;;5070436;28;20179;-71
2021/12/08 05:51:11;;;;;;;8.30;3.80;;;0.10;98.50;;;;;;5069379;28;20183;-71
2021/12/08 05:53:39;;;;;;;3.17;2.83;;;0.10;98.50;;;;;;5072461;28;20182;-70
2021/12/08 05:56:08;;;;;;;3.30;3.07;;;0.10;98.50;;;;;;5071128;28;20218;-71
2021/12/08 05:58:34;;;;;;;5.30;3.70;;;0.10;98.50;;;;;;5068164;28;20183;-71
2021/12/08 06:01:32;;;;;;;6.53;3.93;;;0.10;98.50;;;;;;5072920;28;20214;-70
2021/12/08 06:03:59;;;;;;;7.43;2.93;;;0.10;98.50;;;;;;5075439;28;20185;-70
2021/12/08 06:06:26;;;;;;;4.43;3.60;;;0.10;98.50;;;;;;5067652;28;20191;-69
2021/12/08 06:08:53;;;;;;;6.20;4.10;;;0.10;98.50;;;;;;5071764;28;20687;-70
2021/12/08 06:11:19;;;;;;;5.73;4.07;;;0.10;98.50;;;;;;5071195;28;20186;-69
2021/12/08 06:13:46;;;;;;;6.53;3.43;;;0.10;98.50;;;;;;5070490;28;20180;-69
2021/12/08 06:16:13;;;;;;;5.73;4.20;;;0.10;98.50;;;;;;5068136;28;20215;-70
2021/12/08 06:18:42;;;;;;;4.97;3.10;;;0.10;98.50;;;;;;5074591;28;20191;-71
2021/12/08 06:21:12;;;;;;;6.40;3.93;;;0.10;98.50;;;;;;5074417;28;20244;-71
2021/12/08 06:23:39;;;;;;;4.40;4.00;;;0.20;98.50;;;;;;5076120;28;20179;-70
2021/12/08 06:26:05;;;;;;;6.17;4.03;;;0.30;98.50;;;;;;5073083;28;20921;-70
2021/12/08 06:28:31;;;;;;;5.47;4.37;;;0.30;98.50;;;;;;5073346;28;20227;-71
2021/12/08 06:30:57;;;;;;;6.90;4.20;;;0.30;98.50;;;;;;5072887;28;20262;-70
2021/12/08 06:33:23;;;;;;;9.03;4.17;;;0.30;98.50;;;;;;5078773;28;20217;-70
2021/12/08 06:36:03;;;;;;;4.80;4.00;;;0.40;98.50;;;;;;5077229;28;20719;-69
2021/12/08 06:38:29;;;;;;;6.20;3.63;;;0.40;98.50;;;;;;5083093;28;20187;-71
2021/12/08 06:41:08;;;;;;;3.47;2.80;;;0.40;98.50;;;;;;5077427;28;20186;-70
2021/12/08 06:43:44;;;;;;;5.03;2.97;;;0.40;98.50;;;;;;5077145;28;20576;-71
2021/12/08 06:46:11;;;;;;;3.97;3.60;;;0.30;98.50;;;;;;5070583;28;20585;-70
2021/12/08 06:48:41;;;;;;;4.10;2.33;;;0.30;98.50;;;;;;5071853;28;20258;-70
2021/12/08 06:51:24;;;;;;;4.63;3.10;;;0.30;98.50;;;;;;5077392;28;20210;-70
2021/12/08 06:53:55;;;;;;;5.63;3.33;;;0.20;98.50;;;;;;5074840;28;20276;-69
2021/12/08 06:56:35;;;;;;;4.10;3.00;;;0.20;98.50;;;;;;5070793;28;20299;-70
2021/12/08 06:59:06;;;;;;;5.67;4.00;;;0.20;98.50;;;;;;5071084;28;20645;-69
2021/12/08 07:01:44;;;;;;;4.10;3.50;;;0.20;98.50;;;;;;5073544;28;21106;-72
2021/12/08 07:07:01;;;;;;;4.13;2.93;;;0.10;98.50;;;;;;5071779;28;20185;-71
2021/12/08 07:09:44;;;;;;;4.97;3.73;;;0.20;98.50;;;;;;5074513;28;20187;-70
2021/12/08 07:12:19;;;;;;;4.07;3.00;;;0.10;98.50;;;;;;5078710;28;20218;-71
2021/12/08 07:14:57;;;;;;;3.30;3.10;;;0.20;98.50;;;;;;5071534;28;20185;-68
2021/12/08 07:17:28;;;;;;;3.90;2.57;;;0.20;98.40;;;;;;5072083;28;20228;-71
2021/12/08 07:20:16;;;;;;;2.20;2.10;;;0.20;98.50;;;;;;5076890;28;20182;-70
2021/12/08 07:22:50;;;;;;;4.00;2.77;;;0.20;98.30;;;;;;5068625;28;20687;-70
2021/12/08 07:25:19;;;;;;;3.07;2.63;;;0.10;98.40;;;;;;5068193;28;20215;-70
2021/12/08 07:27:46;;;;;;;6.33;3.93;;;0.20;98.50;;;;;;5074906;28;20206;-68
2021/12/08 07:30:17;;;;;;;5.50;2.80;;;0.20;98.50;;;;;;5072269;28;20733;-69
2021/12/08 07:32:43;;;;;;;3.03;2.73;;;0.20;98.50;;;;;;5073307;28;20187;-70
2021/12/08 07:35:25;;;;;;;4.73;2.97;;;0.20;98.10;;;;;;5075499;28;20722;-70
2021/12/08 07:37:51;;;;;;;3.73;3.13;;;0.20;98.20;;;;;;5075067;28;20213;-69
2021/12/08 07:40:26;;;;;;;3.83;3.53;;;0.20;98.20;;;;;;5071554;28;20178;-70
2021/12/08 07:43:03;;;;;;;3.87;3.57;;;0.30;98.40;;;;;;5076212;28;20182;-70
2021/12/08 07:45:40;;;;;;;3.43;3.00;;;0.30;98.20;;;;;;5076392;28;20265;-70
2021/12/08 07:48:13;;;;;;;4.97;3.47;;;0.30;98.10;;;;;;5064730;28;20833;-69
2021/12/08 07:50:46;;;;;;;3.47;3.13;;;0.20;98.20;;;;;;5072632;28;20189;-69
2021/12/08 07:53:14;;;;;;;3.93;3.17;;;0.20;98.10;;;;;;5069420;28;20262;-69
2021/12/08 07:55:46;;;;;;;5.07;3.43;;;0.20;98.10;;;;;;5065419;28;20222;-69
2021/12/08 07:58:17;;;;;;;4.10;3.37;;;0.20;98.30;;;;;;5072507;28;20179;-70
2021/12/08 08:00:55;;;;;;;3.27;2.17;;;0.30;98.30;;;;;;5072973;28;20178;-70
2021/12/08 08:03:23;;;;;;;2.87;2.77;;;0.30;98.30;;;;;;5073485;28;20259;-70
2021/12/08 08:05:51;;;;;;;5.87;3.43;;;0.30;98.20;;;;;;5073567;28;20183;-70
2021/12/08 08:08:19;;;;;;;4.03;3.20;;;0.40;97.70;;;;;;5070379;28;20244;-70
2021/12/08 08:10:50;;;;;;;3.90;3.30;;;0.40;97.70;;;;;;5072705;28;20747;-70
2021/12/08 08:13:20;;;;;;;3.47;3.17;;;0.40;97.60;;;;;;5074359;28;20197;-70
2021/12/08 08:15:50;;;;;;;7.57;3.40;;;0.40;97.50;;;;;;5074732;28;20198;-69
2021/12/08 08:18:21;;;;;;;3.80;3.47;;;0.40;97.60;;;;;;5069340;28;20191;-70
2021/12/08 08:20:51;;;;;;;3.70;2.33;;;0.40;97.50;;;;;;5070007;28;21029;-70
2021/12/08 08:23:20;;;;;;;3.77;3.40;;;0.40;97.70;;;;;;5070970;28;20272;-69
2021/12/08 08:25:47;;;;;;;3.37;2.80;;;0.40;97.70;;;;;;5075335;28;20680;-71
2021/12/08 08:28:16;;;;;;;3.63;3.33;;;0.40;97.60;;;;;;5069481;28;20181;-69
2021/12/08 08:30:49;;;;;;;5.73;3.60;;;0.40;97.20;;;;;;5072440;28;20655;-70
2021/12/08 08:33:15;;;;;;;3.43;3.13;;;0.40;97.40;;;;;;5070466;28;20443;-71
2021/12/08 08:35:45;;;;;;;4.07;3.77;;;0.30;97.30;;;;;;5072161;28;20565;-71
2021/12/08 08:38:21;;;;;;;3.23;2.90;;;0.30;97.30;;;;;;5075456;28;20194;-69
2021/12/08 08:40:57;;;;;;;6.73;3.83;;;0.30;97.40;;;;;;5073391;28;20734;-69
2021/12/08 08:43:23;;;;;;;6.27;3.57;;;0.30;97.60;;;;;;5068581;28;20320;-70
2021/12/08 08:45:55;;;;;;;4.33;4.03;;;0.30;97.80;;;;;;5074659;28;20190;-70
2021/12/08 08:48:29;;;;;;;4.00;3.67;;;0.30;97.80;;;;;;5067049;28;20600;-70
2021/12/08 08:51:00;;;;;;;5.77;3.80;;;0.30;97.60;;;;;;5071245;28;20183;-70
2021/12/08 08:53:30;;;;;;;6.07;4.87;;;0.30;97.70;;;;;;5066362;28;20256;-70
2021/12/08 08:56:06;;;;;;;4.80;4.40;;;0.40;97.80;;;;;;5065524;28;20209;-68
2021/12/08 08:58:35;;;;;;;7.27;4.47;;;0.40;98.00;;;;;;5069863;28;20182;-70
2021/12/08 09:01:14;;;;;;;7.17;4.23;;;0.50;98.00;;;;;;5069685;28;20229;-69
2021/12/08 09:03:44;;;;;;;5.83;4.23;;;0.60;97.80;;;;;;5070322;28;20194;-69
2021/12/08 09:06:18;;;;;;;5.63;4.57;;;0.60;97.80;;;;;;5068514;28;20664;-71
2021/12/08 09:08:44;;;;;;;5.03;4.43;;;0.70;97.30;;;;;;5071274;28;20678;-71
2021/12/08 09:11:17;;;;;;;3.83;3.53;;;0.70;97.20;;;;;;5067559;28;20187;-75
2021/12/08 09:13:49;;;;;;;7.13;4.57;;;0.80;97.10;;;;;;5068528;28;20175;-70
2021/12/08 09:16:22;;;;;;;5.97;4.07;;;0.80;96.70;;;;;;5064406;28;20218;-75
2021/12/08 09:18:59;;;;;;;5.50;3.93;;;0.80;96.60;;;;;;5068891;28;20548;-70
2021/12/08 09:22:04;;;;;;;3.60;3.33;;;0.80;96.70;;;;;;5071105;28;20905;-71
2021/12/08 09:24:39;;;;;;;5.73;4.00;;;0.90;96.70;;;;;;4987043;28;20197;-70
2021/12/08 09:27:09;;;;;;;4.80;3.50;;;0.90;96.20;;;;;;4966088;28;20272;-70
2021/12/08 09:29:49;;;;;;;6.70;4.67;;;1.00;96.60;;;;;;4986399;28;20753;-70
2021/12/08 09:32:21;;;;;;;8.03;3.70;;;1.10;96.60;;;;;;4986346;28;20185;-70
2021/12/08 09:34:57;;;;;;;6.67;4.03;;;1.20;96.70;;;;;;4986580;28;20205;-68
2021/12/08 09:37:31;;;;;;;6.97;4.40;;;1.30;96.40;;;;;;4992023;28;20311;-71
2021/12/08 09:40:27;;;;;;;10.30;4.77;;;1.30;95.90;;;;;;4989131;28;20184;-70
2021/12/08 09:42:57;;;;;;;5.83;4.60;;;1.40;95.80;;;;;;4987387;28;20197;-69
2021/12/08 09:45:56;;;;;;;8.57;5.10;;;1.40;95.80;;;;;;4987001;28;20268;-68
2021/12/08 09:48:27;;;;;;;5.93;4.10;;;1.40;95.70;;;;;;4939275;29;20191;-70
2021/12/08 09:50:53;;;;;;;4.90;3.93;;;1.50;96.00;;;;;;4935942;29;20788;-69
2021/12/08 09:53:19;;;;;;;5.33;3.93;;;1.50;95.60;;;;;;4942876;28;20198;-69
2021/12/08 09:55:45;;;;;;;6.87;5.60;;;1.60;95.60;;;;;;4944965;29;20231;-69
2021/12/08 09:58:10;;;;;;;4.97;3.67;;;1.60;95.60;;;;;;4942911;29;20187;-69
2021/12/08 10:00:42;;;;;;;5.20;4.30;;;1.60;95.30;;;;;;4952563;28;20294;-72
2021/12/08 10:03:08;;;;;;;5.37;4.23;;;1.70;95.50;;;;;;5001080;28;20189;-71
2021/12/08 10:05:36;;;;;;;4.87;4.00;;;1.70;95.70;;;;;;4997061;28;20308;-72
2021/12/08 10:08:05;;;;;;;3.83;3.20;;;1.80;95.40;;;;;;5001017;28;20196;-72
2021/12/08 10:10:32;;;;;;;3.93;3.53;;;1.80;95.10;;;;;;4999928;28;20667;-72
2021/12/08 10:12:59;;;;;;;4.80;3.80;;;1.90;95.00;;;;;;4997948;28;20189;-72
2021/12/08 10:15:26;;;;;;;3.50;3.20;;;1.90;94.80;;;;;;5001233;28;20240;-70
2021/12/08 10:17:52;;;;;;;4.30;3.37;;;1.90;94.80;;;;;;4999355;28;20290;-70
2021/12/08 10:20:21;;;;;;;6.57;3.93;;;2.00;94.90;;;;;;4999514;28;20189;-71
2021/12/08 10:23:09;;;;;;;5.07;3.90;;;2.00;94.90;;;;;;4999738;28;20239;-70
2021/12/08 10:25:48;;;;;;;5.73;3.97;;;2.00;94.80;;;;;;5057262;28;20197;-72
2021/12/08 10:28:21;;;;;;;4.07;2.87;;;2.00;94.70;;;;;;5069944;28;20546;-72
2021/12/08 10:31:02;;;;;;;5.53;3.97;;;2.00;94.50;;;;;;5073426;28;20178;-72
2021/12/08 10:33:38;;;;;;;4.43;3.53;;;2.00;94.40;;;;;;5065650;28;20245;-72
2021/12/08 10:36:20;;;;;;;5.40;4.30;;;2.10;94.80;;;;;;5072395;28;20210;-70
2021/12/08 10:38:46;;;;;;;5.83;3.97;;;2.10;94.80;;;;;;5072309;28;20175;-70
2021/12/08 10:41:12;;;;;;;6.70;3.70;;;2.20;94.70;;;;;;5072043;28;20659;-71
2021/12/08 10:43:37;;;;;;;6.57;3.90;;;2.20;94.60;;;;;;5066367;28;20183;-70
2021/12/08 10:46:11;;;;;;;4.53;3.80;;;2.30;94.50;;;;;;5071244;28;20853;-71
2021/12/08 10:48:44;;;;;;;5.40;4.40;;;2.30;94.30;;;;;;5071263;28;20183;-71
2021/12/08 10:54:30;;;;;;;6.67;4.20;;;2.40;94.30;;;;;;5066808;28;20186;-70
2021/12/08 10:56:57;;;;;;;4.97;4.20;;;2.40;93.60;;;;;;5069686;28;20594;-71
2021/12/08 10:59:57;;;;;;;4.77;3.73;;;2.40;93.70;;;;;;5072386;28;20210;-72
2021/12/08 11:02:52;;;;;;;5.07;4.10;;;2.60;94.00;;;;;;4992971;28;20203;-72
2021/12/08 11:05:24;;;;;;;4.83;4.13;;;2.70;93.30;;;;;;4993107;28;20254;-71
2021/12/08 11:08:18;;;;;;;6.37;4.27;;;2.80;92.90;;;;;;4992636;28;20201;-71
2021/12/08 11:10:57;;;;;;;6.40;4.17;;;2.90;92.80;;;;;;4991137;28;20276;-70
2021/12/08 11:13:27;;;;;;;4.13;3.47;;;3.10;93.00;;;;;;4997164;28;20208;-70
2021/12/08 11:16:12;;;;;;;5.07;3.77;;;3.40;93.30;;;;;;4993357;28;20376;-70
2021/12/08 11:18:42;;;;;;;5.00;4.10;;;3.70;92.60;;;;;;4996247;28;20181;-71
2021/12/08 11:21:18;;;;;;;5.93;4.03;;;3.90;90.90;;;;;;4996529;28;20700;-71
2021/12/08 11:23:47;;;;;;;4.67;3.70;;;4.20;90.90;;;;;;4989907;28;20188;-71
2021/12/08 11:26:37;;;;;;;7.97;4.80;;;4.40;89.50;;;;;;4976431;28;20193;-72
2021/12/08 11:29:22;;;;;;;5.60;4.40;;;4.50;89.90;;;;;;4981270;28;20292;-71
2021/12/08 11:31:53;;;;;;;7.83;4.93;;;4.80;89.60;;;;;;4996140;28;20721;-71
2021/12/08 11:34:26;;;;;;;7.10;5.67;;;5.20;90.10;;;;;;4992389;28;20207;-71
2021/12/08 11:36:55;;;;;;;4.90;4.47;;;5.60;89.60;;;;;;4977423;28;20722;-69
2021/12/08 11:39:48;;;;;;;7.60;4.03;;;6.00;87.90;;;;;;5032520;28;20225;-71
2021/12/08 11:42:16;;;;;;;6.60;4.90;;;6.40;85.10;;;;;;5068187;28;20179;-70
2021/12/08 11:44:45;;;;;;;6.23;4.60;;;6.60;85.10;;;;;;5065502;28;20249;-71
2021/12/08 11:47:24;;;;;;;5.27;4.80;;;6.90;83.70;;;;;;5069146;28;20708;-71
2021/12/08 11:50:02;;;;;;;7.13;5.13;;;7.10;82.10;;;;;;5068095;28;20174;-71
2021/12/08 11:52:32;;;;;;;5.47;4.90;;;7.10;81.30;;;;;;5067580;28;21006;-70
2021/12/08 11:55:06;;;;;;;6.23;4.80;;;7.20;81.40;;;;;;5070940;28;20182;-71
2021/12/08 11:57:42;;;;;;;7.70;5.53;;;7.40;81.10;;;;;;5074273;28;20273;-71
2021/12/08 12:00:28;;;;;;;5.37;4.30;;;7.60;81.30;;;;;;5069724;28;20190;-71
2021/12/08 12:03:04;;;;;;;5.37;4.73;;;7.80;79.40;;;;;;5067554;28;20194;-71
2021/12/08 12:05:40;;;;;;;8.23;5.70;;;8.00;80.30;;;;;;5067695;28;20316;-71
2021/12/08 12:08:09;;;;;;;5.50;5.00;;;8.30;80.10;;;;;;5070541;28;20255;-72
2021/12/08 12:10:39;;;;;;;7.40;5.03;;;8.50;77.70;;;;;;5073564;28;20522;-72
2021/12/08 12:13:08;;;;;;;6.70;5.27;;;8.60;77.20;;;;;;5086328;28;20209;-72
2021/12/08 12:15:35;;;;;;;5.70;5.17;;;8.60;77.60;;;;;;5071155;28;20222;-72
2021/12/08 12:18:01;;;;;;;8.90;6.67;;;8.70;77.10;;;;;;5074132;28;20231;-72
2021/12/08 12:20:30;;;;;;;6.43;5.10;;;8.90;76.30;;;;;;5072478;28;20183;-73
2021/12/08 12:22:58;;;;;;;7.40;5.73;;;9.10;76.50;;;;;;5069208;28;20243;-72
2021/12/08 12:25:50;;;;;;;6.20;5.43;;;9.20;76.10;;;;;;5074385;28;20195;-73
2021/12/08 12:28:53;;;;;;;7.60;5.47;;;9.20;75.50;;;;;;5074698;28;20254;-73
2021/12/08 12:31:37;;;;;;;6.57;5.37;;;9.30;74.90;;;;;;5073704;28;20259;-73
2021/12/08 12:34:19;;;;;;;6.27;5.03;;;9.20;74.40;;;;;;5065959;28;20565;-73
2021/12/08 12:36:45;;;;;;;6.43;5.13;;;9.20;73.80;;;;;;5064848;28;20198;-73
2021/12/08 12:39:14;;;;;;;5.90;5.30;;;9.10;73.90;;;;;;5067502;28;20191;-73
2021/12/08 12:41:42;;;;;;;8.33;5.90;;;9.10;74.20;;;;;;5071193;28;20281;-73
2021/12/08 12:44:26;;;;;;;7.83;6.13;;;9.10;75.00;;;;;;5074953;28;20187;-73
2021/12/08 12:49:33;;;;;;;8.87;5.03;;;9.10;73.60;;;;;;5072434;28;20739;-73
2021/12/08 12:52:01;;;;;;;6.07;5.43;;;8.90;73.50;;;;;;5069152;28;20638;-73
2021/12/08 12:54:27;;;;;;;7.17;5.03;;;8.80;74.10;;;;;;5075598;28;20178;-73
2021/12/08 12:56:55;;;;;;;6.23;5.57;;;8.80;74.20;;;;;;5070740;28;20264;-73
2021/12/08 12:59:25;;;;;;;5.63;4.97;;;8.60;73.30;;;;;;5073245;28;20976;-73
2021/12/08 13:02:06;;;;;;;6.20;5.10;;;8.50;75.10;;;;;;5073280;28;20252;-73
2021/12/08 13:04:35;;;;;;;5.57;4.27;;;8.40;74.60;;;;;;5075006;28;20257;-72
2021/12/08 13:07:07;;;;;;;5.03;4.57;;;8.30;74.70;;;;;;5070878;28;20224;-73
2021/12/08 13:09:41;;;;;;;6.00;5.37;;;8.10;74.50;;;;;;5066496;28;20568;-73
2021/12/08 13:12:20;;;;;;;6.53;4.87;;;8.00;75.00;;;;;;5074239;28;20214;-72
2021/12/08 13:15:05;;;;;;;6.80;5.17;;;7.90;75.10;;;;;;5066780;28;20189;-71
2021/12/08 13:17:31;;;;;;;5.10;4.60;;;7.80;75.60;;;;;;5069512;28;20195;-72
2021/12/08 13:20:00;;;;;;;5.40;4.50;;;7.70;75.60;;;;;;5070847;28;20175;-72
2021/12/08 13:22:48;;;;;;;5.70;4.90;;;7.60;75.70;;;;;;5065270;28;20194;-73
2021/12/08 13:25:30;;;;;;;6.50;4.70;;;7.40;75.00;;;;;;5069609;28;20167;-71
2021/12/08 13:28:19;;;;;;;6.30;4.83;;;7.10;75.70;;;;;;5068269;28;20178;-72
2021/12/08 13:30:48;;;;;;;7.43;4.60;;;6.80;75.60;;;;;;5069171;28;20783;-72
2021/12/08 13:33:29;;;;;;;4.80;4.27;;;6.60;76.60;;;;;;5073534;28;20183;-72
2021/12/08 13:35:56;;;;;;;6.00;3.93;;;6.50;77.20;;;;;;5065883;28;20238;-72
2021/12/08 13:38:24;;;;;;;5.27;4.77;;;6.20;76.70;;;;;;5073777;28;20198;-72
2021/12/08 13:40:57;;;;;;;4.77;4.37;;;6.00;77.40;;;;;;5069758;28;20189;-73
2021/12/08 13:43:39;;;;;;;5.93;4.87;;;5.70;77.70;;;;;;5066366;28;20194;-73
2021/12/08 13:46:07;;;;;;;10.27;4.93;;;5.40;78.20;;;;;;5070356;28;20190;-73
2021/12/08 13:48:35;;;;;;;4.43;4.03;;;5.00;78.80;;;;;;5070239;28;20563;-73
2021/12/08 13:51:21;;;;;;;6.20;5.07;;;4.60;80.10;;;;;;5068254;28;20186;-73
2021/12/08 13:54:24;;;;;;;4.57;4.17;;;4.30;80.90;;;;;;5064762;28;20225;-72
2021/12/08 13:56:50;;;;;;;5.47;4.23;;;4.10;81.90;;;;;;5073498;28;20769;-73
2021/12/08 13:59:44;;;;;;;7.20;4.63;;;3.80;82.40;;;;;;5073629;28;20178;-72
2021/12/08 14:02:23;;;;;;;4.77;4.00;;;3.60;83.00;;;;;;5065121;28;20183;-72
2021/12/08 14:04:56;;;;;;;5.27;4.87;;;3.40;83.50;;;;;;5070985;28;20182;-72
2021/12/08 14:07:21;;;;;;;7.30;4.87;;;3.30;83.90;;;;;;5065979;28;20206;-72
2021/12/08 14:09:47;;;;;;;6.33;4.47;;;3.20;84.30;;;;;;5067109;28;20198;-72